sensor_id;sensor_type;location;lat;lon;timestamp;P1;durP1;ratioP1;P2;durP2;ratioP2
57335;SDS011;43171;50.994;18.204;2023-04-15T00:02:41;9.00;;;6.00;;
57335;SDS011;43171;50.994;18.204;2023-04-15T00:12:24;14.60;;;6.60;;
57335;SDS011;43171;50.994;18.204;2023-04-15T00:22:09;11.50;;;7.40;;
57335;SDS011;43171;50.994;18.204;2023-04-15T00:24:34;15.10;;;11.60;;
57335;SDS011;43171;50.994;18.204;2023-04-15T00:34:16;14.00;;;8.50;;
57335;SDS011;43171;50.994;18.204;2023-04-15T00:44:04;7.50;;;5.70;;
57335;SDS011;43171;50.994;18.204;2023-04-15T00:53:48;7.60;;;5.70;;
57335;SDS011;43171;50.994;18.204;2023-04-15T01:03:33;9.70;;;7.10;;
57335;SDS011;43171;50.994;18.204;2023-04-15T01:13:18;12.70;;;8.30;;
57335;SDS011;43171;50.994;18.204;2023-04-15T01:23:01;23.90;;;5.80;;
57335;SDS011;43171;50.994;18.204;2023-04-15T01:32:47;14.50;;;8.10;;
57335;SDS011;43171;50.994;18.204;2023-04-15T01:42:30;9.30;;;7.10;;
57335;SDS011;43171;50.994;18.204;2023-04-15T01:52:14;8.80;;;7.40;;
57335;SDS011;43171;50.994;18.204;2023-04-15T01:54:40;13.70;;;10.50;;
57335;SDS011;43171;50.994;18.204;2023-04-15T02:04:22;12.90;;;8.30;;
57335;SDS011;43171;50.994;18.204;2023-04-15T02:14:05;11.90;;;7.80;;
57335;SDS011;43171;50.994;18.204;2023-04-15T02:23:47;10.60;;;6.90;;
57335;SDS011;43171;50.994;18.204;2023-04-15T02:33:30;6.50;;;4.60;;
57335;SDS011;43171;50.994;18.204;2023-04-15T02:43:14;14.30;;;8.40;;
57335;SDS011;43171;50.994;18.204;2023-04-15T02:52:59;17.50;;;9.30;;
57335;SDS011;43171;50.994;18.204;2023-04-15T03:07:08;12.50;;;9.60;;
57335;SDS011;43171;50.994;18.204;2023-04-15T03:16:50;9.50;;;5.80;;
57335;SDS011;43171;50.994;18.204;2023-04-15T03:26:32;10.90;;;6.00;;
57335;SDS011;43171;50.994;18.204;2023-04-15T03:36:14;17.50;;;9.70;;
57335;SDS011;43171;50.994;18.204;2023-04-15T03:45:57;10.20;;;5.80;;
57335;SDS011;43171;50.994;18.204;2023-04-15T03:55:40;22.40;;;8.10;;
57335;SDS011;43171;50.994;18.204;2023-04-15T04:05:22;9.00;;;5.00;;
57335;SDS011;43171;50.994;18.204;2023-04-15T04:15:04;5.80;;;3.60;;
57335;SDS011;43171;50.994;18.204;2023-04-15T04:24:48;6.50;;;4.30;;
57335;SDS011;43171;50.994;18.204;2023-04-15T04:34:31;3.40;;;2.00;;
57335;SDS011;43171;50.994;18.204;2023-04-15T04:44:14;13.70;;;7.70;;
57335;SDS011;43171;50.994;18.204;2023-04-15T04:53:56;13.80;;;4.50;;
57335;SDS011;43171;50.994;18.204;2023-04-15T05:03:39;4.50;;;3.40;;
57335;SDS011;43171;50.994;18.204;2023-04-15T05:13:24;7.20;;;4.80;;
57335;SDS011;43171;50.994;18.204;2023-04-15T05:23:06;5.20;;;3.60;;
57335;SDS011;43171;50.994;18.204;2023-04-15T05:25:32;5.60;;;4.40;;
57335;SDS011;43171;50.994;18.204;2023-04-15T05:35:14;6.00;;;4.30;;
57335;SDS011;43171;50.994;18.204;2023-04-15T05:44:57;4.90;;;4.20;;
57335;SDS011;43171;50.994;18.204;2023-04-15T05:54:39;6.80;;;4.90;;
57335;SDS011;43171;50.994;18.204;2023-04-15T06:04:23;6.50;;;4.10;;
57335;SDS011;43171;50.994;18.204;2023-04-15T06:14:05;7.50;;;6.40;;
57335;SDS011;43171;50.994;18.204;2023-04-15T06:16:31;3.90;;;3.10;;
57335;SDS011;43171;50.994;18.204;2023-04-15T06:26:13;4.90;;;4.50;;
57335;SDS011;43171;50.994;18.204;2023-04-15T06:35:55;3.70;;;1.70;;
57335;SDS011;43171;50.994;18.204;2023-04-15T06:38:21;3.40;;;3.10;;
57335;SDS011;43171;50.994;18.204;2023-04-15T06:48:03;3.10;;;2.80;;
57335;SDS011;43171;50.994;18.204;2023-04-15T06:57:47;8.00;;;1.60;;
57335;SDS011;43171;50.994;18.204;2023-04-15T07:07:30;2.80;;;1.80;;
57335;SDS011;43171;50.994;18.204;2023-04-15T07:17:13;2.30;;;2.10;;
57335;SDS011;43171;50.994;18.204;2023-04-15T07:26:56;1.40;;;1.30;;
57335;SDS011;43171;50.994;18.204;2023-04-15T07:36:40;1.40;;;1.30;;
57335;SDS011;43171;50.994;18.204;2023-04-15T07:46:23;0.70;;;0.40;;
57335;SDS011;43171;50.994;18.204;2023-04-15T07:56:09;0.00;;;0.00;;
57335;SDS011;43171;50.994;18.204;2023-04-15T08:05:52;0.20;;;0.20;;
57335;SDS011;43171;50.994;18.204;2023-04-15T08:15:35;0.30;;;0.30;;
57335;SDS011;43171;50.994;18.204;2023-04-15T08:25:17;0.50;;;0.50;;
57335;SDS011;43171;50.994;18.204;2023-04-15T08:35:02;1.00;;;0.60;;
57335;SDS011;43171;50.994;18.204;2023-04-15T08:44:47;0.50;;;0.50;;
57335;SDS011;43171;50.994;18.204;2023-04-15T08:54:31;0.80;;;0.50;;
57335;SDS011;43171;50.994;18.204;2023-04-15T09:04:15;0.30;;;0.30;;
57335;SDS011;43171;50.994;18.204;2023-04-15T09:13:59;0.60;;;0.50;;
57335;SDS011;43171;50.994;18.204;2023-04-15T09:23:53;0.40;;;0.40;;
57335;SDS011;43171;50.994;18.204;2023-04-15T09:33:58;0.60;;;0.60;;
57335;SDS011;43171;50.994;18.204;2023-04-15T09:43:47;1.20;;;0.70;;
57335;SDS011;43171;50.994;18.204;2023-04-15T09:53:29;0.50;;;0.50;;
57335;SDS011;43171;50.994;18.204;2023-04-15T10:03:33;2.10;;;0.40;;
57335;SDS011;43171;50.994;18.204;2023-04-15T10:13:23;1.50;;;0.50;;
57335;SDS011;43171;50.994;18.204;2023-04-15T10:23:28;0.70;;;0.70;;
57335;SDS011;43171;50.994;18.204;2023-04-15T10:33:13;0.50;;;0.40;;
57335;SDS011;43171;50.994;18.204;2023-04-15T10:43:26;2.00;;;0.50;;
57335;SDS011;43171;50.994;18.204;2023-04-15T10:53:29;0.50;;;0.50;;
57335;SDS011;43171;50.994;18.204;2023-04-15T11:03:20;0.80;;;0.60;;
57335;SDS011;43171;50.994;18.204;2023-04-15T11:13:46;4.00;;;1.60;;
57335;SDS011;43171;50.994;18.204;2023-04-15T11:30:57;1.20;;;0.80;;
57335;SDS011;43171;50.994;18.204;2023-04-15T11:40:44;0.70;;;0.60;;
57335;SDS011;43171;50.994;18.204;2023-04-15T11:51:00;4.00;;;1.50;;
57335;SDS011;43171;50.994;18.204;2023-04-15T12:00:57;1.10;;;1.00;;
57335;SDS011;43171;50.994;18.204;2023-04-15T12:11:14;0.90;;;0.70;;
57335;SDS011;43171;50.994;18.204;2023-04-15T12:21:11;0.30;;;0.30;;
57335;SDS011;43171;50.994;18.204;2023-04-15T12:30:56;0.70;;;0.50;;
57335;SDS011;43171;50.994;18.204;2023-04-15T12:40:38;0.80;;;0.50;;
57335;SDS011;43171;50.994;18.204;2023-04-15T12:50:21;1.10;;;1.00;;
57335;SDS011;43171;50.994;18.204;2023-04-15T13:00:04;0.40;;;0.40;;
57335;SDS011;43171;50.994;18.204;2023-04-15T13:09:48;0.80;;;0.70;;
57335;SDS011;43171;50.994;18.204;2023-04-15T13:19:34;4.30;;;1.00;;
57335;SDS011;43171;50.994;18.204;2023-04-15T13:29:18;8.00;;;5.50;;
57335;SDS011;43171;50.994;18.204;2023-04-15T13:39:00;3.70;;;2.40;;
57335;SDS011;43171;50.994;18.204;2023-04-15T13:48:42;4.10;;;2.70;;
57335;SDS011;43171;50.994;18.204;2023-04-15T13:58:25;4.70;;;2.90;;
57335;SDS011;43171;50.994;18.204;2023-04-15T14:03:17;4.60;;;3.70;;
57335;SDS011;43171;50.994;18.204;2023-04-15T14:12:59;3.70;;;3.30;;
57335;SDS011;43171;50.994;18.204;2023-04-15T14:22:41;2.10;;;1.60;;
57335;SDS011;43171;50.994;18.204;2023-04-15T14:32:24;1.80;;;1.70;;
57335;SDS011;43171;50.994;18.204;2023-04-15T14:42:07;5.30;;;2.10;;
57335;SDS011;43171;50.994;18.204;2023-04-15T14:51:50;4.90;;;2.40;;
57335;SDS011;43171;50.994;18.204;2023-04-15T14:56:41;19.70;;;8.70;;
57335;SDS011;43171;50.994;18.204;2023-04-15T15:06:23;12.80;;;6.70;;
57335;SDS011;43171;50.994;18.204;2023-04-15T15:11:14;12.30;;;7.40;;
57335;SDS011;43171;50.994;18.204;2023-04-15T15:20:57;17.00;;;6.80;;
57335;SDS011;43171;50.994;18.204;2023-04-15T15:30:39;4.70;;;2.90;;
57335;SDS011;43171;50.994;18.204;2023-04-15T15:35:30;5.20;;;3.80;;
57335;SDS011;43171;50.994;18.204;2023-04-15T15:45:15;3.80;;;3.00;;
57335;SDS011;43171;50.994;18.204;2023-04-15T15:54:58;5.50;;;4.40;;
57335;SDS011;43171;50.994;18.204;2023-04-15T16:04:39;7.90;;;4.10;;
57335;SDS011;43171;50.994;18.204;2023-04-15T16:14:25;9.10;;;4.60;;
57335;SDS011;43171;50.994;18.204;2023-04-15T16:21:42;16.40;;;10.40;;
57335;SDS011;43171;50.994;18.204;2023-04-15T16:31:26;5.60;;;4.50;;
57335;SDS011;43171;50.994;18.204;2023-04-15T16:41:12;5.80;;;2.90;;
57335;SDS011;43171;50.994;18.204;2023-04-15T16:50:56;9.00;;;5.70;;
57335;SDS011;43171;50.994;18.204;2023-04-15T17:00:38;5.70;;;4.00;;
57335;SDS011;43171;50.994;18.204;2023-04-15T17:10:21;2.60;;;2.20;;
57335;SDS011;43171;50.994;18.204;2023-04-15T17:20:05;3.00;;;1.70;;
57335;SDS011;43171;50.994;18.204;2023-04-15T17:29:52;5.50;;;3.10;;
57335;SDS011;43171;50.994;18.204;2023-04-15T17:39:35;3.50;;;2.90;;
57335;SDS011;43171;50.994;18.204;2023-04-15T17:49:17;5.00;;;2.20;;
57335;SDS011;43171;50.994;18.204;2023-04-15T17:59:02;0.20;;;0.20;;
57335;SDS011;43171;50.994;18.204;2023-04-15T18:08:46;12.80;;;3.80;;
57335;SDS011;43171;50.994;18.204;2023-04-15T18:18:30;11.40;;;7.10;;
57335;SDS011;43171;50.994;18.204;2023-04-15T18:20:55;34.40;;;18.70;;
57335;SDS011;43171;50.994;18.204;2023-04-15T18:30:37;15.50;;;7.30;;
57335;SDS011;43171;50.994;18.204;2023-04-15T18:40:23;8.40;;;3.40;;
57335;SDS011;43171;50.994;18.204;2023-04-15T18:50:07;2.90;;;2.70;;
57335;SDS011;43171;50.994;18.204;2023-04-15T18:59:52;4.60;;;4.00;;
57335;SDS011;43171;50.994;18.204;2023-04-15T19:09:34;8.60;;;4.20;;
57335;SDS011;43171;50.994;18.204;2023-04-15T19:19:18;6.10;;;4.40;;
57335;SDS011;43171;50.994;18.204;2023-04-15T19:29:06;3.40;;;3.10;;
57335;SDS011;43171;50.994;18.204;2023-04-15T19:38:47;6.00;;;4.60;;
57335;SDS011;43171;50.994;18.204;2023-04-15T19:41:13;21.20;;;12.00;;
57335;SDS011;43171;50.994;18.204;2023-04-15T19:50:56;16.60;;;7.70;;
57335;SDS011;43171;50.994;18.204;2023-04-15T20:00:38;23.40;;;11.60;;
57335;SDS011;43171;50.994;18.204;2023-04-15T20:10:21;24.60;;;13.70;;
57335;SDS011;43171;50.994;18.204;2023-04-15T20:20:03;21.80;;;10.70;;
57335;SDS011;43171;50.994;18.204;2023-04-15T20:29:46;17.20;;;9.70;;
57335;SDS011;43171;50.994;18.204;2023-04-15T20:39:32;24.40;;;10.20;;
57335;SDS011;43171;50.994;18.204;2023-04-15T20:49:14;19.90;;;10.30;;
57335;SDS011;43171;50.994;18.204;2023-04-15T20:58:56;24.30;;;12.90;;
57335;SDS011;43171;50.994;18.204;2023-04-15T21:08:39;23.40;;;12.90;;
57335;SDS011;43171;50.994;18.204;2023-04-15T21:18:21;23.10;;;11.70;;
57335;SDS011;43171;50.994;18.204;2023-04-15T21:28:12;20.40;;;12.10;;
57335;SDS011;43171;50.994;18.204;2023-04-15T21:37:56;18.40;;;12.20;;
57335;SDS011;43171;50.994;18.204;2023-04-15T21:47:39;19.90;;;11.80;;
57335;SDS011;43171;50.994;18.204;2023-04-15T21:57:23;17.90;;;10.80;;
57335;SDS011;43171;50.994;18.204;2023-04-15T21:59:48;22.60;;;15.70;;
57335;SDS011;43171;50.994;18.204;2023-04-15T22:09:31;20.80;;;12.80;;
57335;SDS011;43171;50.994;18.204;2023-04-15T22:19:18;17.40;;;8.30;;
57335;SDS011;43171;50.994;18.204;2023-04-15T22:24:10;25.70;;;16.10;;
57335;SDS011;43171;50.994;18.204;2023-04-15T22:33:52;17.20;;;12.00;;
57335;SDS011;43171;50.994;18.204;2023-04-15T22:43:35;17.70;;;11.50;;
57335;SDS011;43171;50.994;18.204;2023-04-15T22:53:18;23.80;;;13.40;;
57335;SDS011;43171;50.994;18.204;2023-04-15T23:03:04;19.00;;;9.40;;
57335;SDS011;43171;50.994;18.204;2023-04-15T23:12:47;18.20;;;10.00;;
57335;SDS011;43171;50.994;18.204;2023-04-15T23:22:29;17.40;;;10.00;;
57335;SDS011;43171;50.994;18.204;2023-04-15T23:32:12;20.60;;;10.30;;
57335;SDS011;43171;50.994;18.204;2023-04-15T23:41:54;17.80;;;12.00;;
57335;SDS011;43171;50.994;18.204;2023-04-15T23:51:37;16.10;;;8.30;;
